Time;durP1;ratioP1;P1;durP2;ratioP2;P2;SDS_P1;SDS_P2;PMS_P1;PMS_P2;Temp;Humidity;BMP_temperature;BMP_pressure;BME280_temperature;BME280_humidity;BME280_pressure;Samples;Min_cycle;Max_cycle;Signal;HPM_P1;HPM_P2
2024/02/22 00:02:19;;;;;;;3.88;2.00;;;;;;;;;;5050782;28;20083;-52
2024/02/22 00:04:46;;;;;;;3.90;2.10;;;;;;;;;;5054398;28;20048;-53
2024/02/22 00:07:15;;;;;;;4.20;1.85;;;;;;;;;;5050995;28;20045;-54
2024/02/22 00:09:43;;;;;;;3.95;2.33;;;;;;;;;;5051171;28;20049;-52
2024/02/22 00:12:10;;;;;;;6.15;1.90;;;;;;;;;;5051157;28;20044;-52
2024/02/22 00:14:40;;;;;;;3.80;2.03;;;;;;;;;;5044069;28;20046;-53
2024/02/22 00:17:07;;;;;;;2.28;1.05;;;;;;;;;;5051718;28;20037;-52
2024/02/22 00:19:34;;;;;;;1.40;0.90;;;;;;;;;;5045597;28;20386;-51
2024/02/22 00:22:01;;;;;;;2.42;1.00;;;;;;;;;;5054382;28;20456;-53
2024/02/22 00:24:28;;;;;;;2.97;1.02;;;;;;;;;;5042957;28;20390;-51
2024/02/22 00:26:55;;;;;;;2.08;0.90;;;;;;;;;;5050757;28;20052;-54
2024/02/22 00:29:22;;;;;;;4.45;1.30;;;;;;;;;;5050674;28;20373;-51
2024/02/22 00:31:50;;;;;;;2.38;1.08;;;;;;;;;;5050406;28;20103;-53
2024/02/22 00:34:16;;;;;;;2.05;1.15;;;;;;;;;;5049088;28;20129;-55
2024/02/22 00:36:43;;;;;;;3.47;1.30;;;;;;;;;;5050325;28;20049;-56
2024/02/22 00:39:10;;;;;;;1.52;1.00;;;;;;;;;;5050547;28;20512;-56
2024/02/22 00:41:37;;;;;;;1.60;1.00;;;;;;;;;;5050233;28;20071;-55
2024/02/22 00:44:05;;;;;;;4.10;1.50;;;;;;;;;;5053659;28;20083;-51
2024/02/22 00:46:32;;;;;;;4.85;2.15;;;;;;;;;;5042674;28;20068;-54
2024/02/22 00:49:01;;;;;;;3.22;1.70;;;;;;;;;;5053893;28;20076;-52
2024/02/22 00:51:27;;;;;;;5.18;1.70;;;;;;;;;;5052523;28;20080;-55
2024/02/22 00:53:54;;;;;;;3.22;2.20;;;;;;;;;;5052508;28;20119;-54
2024/02/22 00:56:21;;;;;;;2.95;1.30;;;;;;;;;;5052658;28;20132;-49
2024/02/22 00:58:48;;;;;;;2.78;1.23;;;;;;;;;;5054068;28;20087;-52
2024/02/22 01:01:15;;;;;;;2.13;0.90;;;;;;;;;;5050999;28;20048;-54
2024/02/22 01:03:42;;;;;;;1.90;1.00;;;;;;;;;;5050641;28;20049;-52
2024/02/22 01:06:11;;;;;;;2.25;1.20;;;;;;;;;;5047822;28;20069;-52
2024/02/22 01:08:38;;;;;;;2.92;1.00;;;;;;;;;;5053662;28;20480;-50
2024/02/22 01:11:05;;;;;;;2.03;1.10;;;;;;;;;;5053533;28;20091;-54
2024/02/22 01:13:32;;;;;;;2.28;0.90;;;;;;;;;;5053328;28;20159;-51
2024/02/22 01:15:58;;;;;;;2.63;1.20;;;;;;;;;;5052262;28;20053;-55
2024/02/22 01:18:25;;;;;;;3.05;1.45;;;;;;;;;;5053811;28;20052;-50
2024/02/22 01:20:52;;;;;;;3.60;1.30;;;;;;;;;;5041706;28;20076;-50
2024/02/22 01:23:20;;;;;;;2.60;1.00;;;;;;;;;;5051078;28;20077;-51
2024/02/22 01:25:47;;;;;;;2.15;1.00;;;;;;;;;;5055214;28;20102;-55
2024/02/22 01:28:14;;;;;;;1.67;0.90;;;;;;;;;;5052872;28;20051;-56
2024/02/22 01:30:41;;;;;;;2.85;1.00;;;;;;;;;;5053383;28;20453;-52
2024/02/22 01:33:09;;;;;;;3.20;1.30;;;;;;;;;;5052670;28;20080;-54
2024/02/22 01:35:36;;;;;;;2.63;1.00;;;;;;;;;;5053579;28;20411;-54
2024/02/22 01:38:03;;;;;;;2.05;0.90;;;;;;;;;;5048487;28;20076;-52
2024/02/22 01:40:31;;;;;;;2.15;1.17;;;;;;;;;;5050280;28;20083;-53
2024/02/22 01:42:58;;;;;;;1.38;0.80;;;;;;;;;;5052611;28;20128;-52
2024/02/22 01:45:24;;;;;;;2.08;0.90;;;;;;;;;;5053220;28;20084;-53
2024/02/22 01:47:51;;;;;;;3.03;1.10;;;;;;;;;;5045893;28;20077;-53
2024/02/22 01:50:18;;;;;;;2.42;0.93;;;;;;;;;;5053211;28;20509;-55
2024/02/22 01:52:45;;;;;;;0.77;0.60;;;;;;;;;;5050849;28;20077;-55
2024/02/22 01:55:15;;;;;;;1.25;0.70;;;;;;;;;;5050649;28;20147;-55
2024/02/22 01:57:43;;;;;;;3.03;0.80;;;;;;;;;;5051681;28;20507;-55
2024/02/22 02:00:17;;;;;;;0.90;0.60;;;;;;;;;;5052676;28;20083;-51
2024/02/22 02:02:44;;;;;;;1.58;0.80;;;;;;;;;;5052523;28;20045;-52
2024/02/22 02:05:11;;;;;;;1.83;0.90;;;;;;;;;;5052952;28;20119;-50
2024/02/22 02:07:39;;;;;;;1.85;0.73;;;;;;;;;;5046145;28;20060;-52
2024/02/22 02:10:08;;;;;;;1.83;0.70;;;;;;;;;;5052789;28;20083;-54
2024/02/22 02:12:35;;;;;;;0.70;0.60;;;;;;;;;;5052496;28;20055;-51
2024/02/22 02:15:04;;;;;;;1.27;0.70;;;;;;;;;;5052077;28;20052;-52
2024/02/22 02:17:30;;;;;;;1.88;0.70;;;;;;;;;;5049650;28;20083;-53
2024/02/22 02:19:58;;;;;;;1.27;0.63;;;;;;;;;;5052457;28;20052;-55
2024/02/22 02:22:38;;;;;;;2.28;0.60;;;;;;;;;;5052242;28;20087;-55
2024/02/22 02:25:06;;;;;;;1.70;0.60;;;;;;;;;;5050437;28;20087;-56
2024/02/22 02:27:34;;;;;;;2.13;0.70;;;;;;;;;;5052244;28;20433;-51
2024/02/22 02:30:01;;;;;;;1.10;0.68;;;;;;;;;;5050551;28;20053;-54
2024/02/22 02:32:27;;;;;;;2.17;0.75;;;;;;;;;;5049093;28;20456;-52
2024/02/22 02:34:54;;;;;;;1.33;0.70;;;;;;;;;;5054705;28;20527;-51
2024/02/22 02:37:21;;;;;;;1.77;0.80;;;;;;;;;;5052344;28;20095;-56
2024/02/22 02:39:47;;;;;;;1.38;0.70;;;;;;;;;;5051803;28;20220;-50
2024/02/22 02:42:15;;;;;;;1.80;0.80;;;;;;;;;;5052035;28;20076;-50
2024/02/22 02:44:43;;;;;;;1.83;0.70;;;;;;;;;;5051662;28;20065;-52
2024/02/22 02:47:09;;;;;;;1.85;0.85;;;;;;;;;;5051828;28;20098;-52
2024/02/22 02:49:36;;;;;;;1.95;0.70;;;;;;;;;;5051108;28;20083;-55
2024/02/22 02:52:03;;;;;;;2.70;0.90;;;;;;;;;;5054025;28;20072;-53
2024/02/22 02:54:30;;;;;;;1.75;0.90;;;;;;;;;;5046679;28;20049;-56
2024/02/22 02:56:56;;;;;;;2.78;1.05;;;;;;;;;;5052404;28;20072;-54
2024/02/22 02:59:25;;;;;;;3.17;1.15;;;;;;;;;;5044571;28;20052;-51
2024/02/22 03:01:52;;;;;;;2.35;0.80;;;;;;;;;;5046825;28;20060;-50
2024/02/22 03:04:19;;;;;;;1.67;0.70;;;;;;;;;;5051327;28;20065;-51
2024/02/22 03:06:46;;;;;;;1.65;0.80;;;;;;;;;;5050827;28;20049;-53
2024/02/22 03:09:13;;;;;;;1.63;0.68;;;;;;;;;;5049914;28;20056;-55
2024/02/22 03:11:41;;;;;;;1.17;0.60;;;;;;;;;;5051428;28;20045;-52
2024/02/22 03:14:09;;;;;;;1.58;0.50;;;;;;;;;;5050861;28;20049;-52
2024/02/22 03:16:37;;;;;;;0.93;0.50;;;;;;;;;;5051316;28;20045;-54
2024/02/22 03:19:04;;;;;;;0.73;0.40;;;;;;;;;;5053884;28;20049;-53
2024/02/22 03:21:31;;;;;;;0.50;0.50;;;;;;;;;;5045323;28;20449;-54
2024/02/22 03:23:58;;;;;;;0.98;0.43;;;;;;;;;;5046923;28;20123;-51
2024/02/22 03:26:25;;;;;;;1.02;0.50;;;;;;;;;;5050924;28;20049;-50
2024/02/22 03:28:52;;;;;;;1.55;0.77;;;;;;;;;;5051070;28;20053;-50
2024/02/22 03:31:19;;;;;;;1.45;0.50;;;;;;;;;;5048305;28;20544;-51
2024/02/22 03:33:47;;;;;;;1.20;0.60;;;;;;;;;;5049420;28;20041;-50
2024/02/22 03:36:14;;;;;;;1.75;0.60;;;;;;;;;;5049781;28;20072;-56
2024/02/22 03:38:40;;;;;;;1.63;1.15;;;;;;;;;;5052937;28;20079;-51
2024/02/22 03:41:07;;;;;;;1.25;0.50;;;;;;;;;;5049849;28;20041;-52
2024/02/22 03:43:37;;;;;;;0.93;0.45;;;;;;;;;;5043227;28;20440;-55
2024/02/22 03:46:04;;;;;;;1.10;0.43;;;;;;;;;;5042912;28;21628;-50
2024/02/22 03:48:31;;;;;;;0.82;0.60;;;;;;;;;;5045040;28;20048;-55
2024/02/22 03:50:59;;;;;;;1.08;0.60;;;;;;;;;;5049180;28;20045;-50
2024/02/22 03:53:26;;;;;;;0.90;0.50;;;;;;;;;;5049016;28;20073;-50
2024/02/22 03:55:53;;;;;;;1.70;0.63;;;;;;;;;;5050540;28;20083;-54
2024/02/22 03:58:20;;;;;;;0.88;0.50;;;;;;;;;;5050767;28;20404;-52
2024/02/22 04:00:47;;;;;;;1.00;0.68;;;;;;;;;;5045783;28;20147;-53
2024/02/22 04:03:13;;;;;;;1.95;0.70;;;;;;;;;;5041487;28;20108;-52
2024/02/22 04:05:40;;;;;;;0.90;0.63;;;;;;;;;;5050860;28;20080;-54
2024/02/22 04:08:08;;;;;;;1.73;0.73;;;;;;;;;;5049767;28;20488;-53
2024/02/22 04:10:35;;;;;;;1.25;0.80;;;;;;;;;;5050583;28;20064;-50
2024/02/22 04:13:02;;;;;;;1.42;0.80;;;;;;;;;;5046680;28;20486;-54
2024/02/22 04:15:29;;;;;;;2.00;0.90;;;;;;;;;;5048751;28;20496;-54
2024/02/22 04:17:55;;;;;;;2.33;0.90;;;;;;;;;;5056929;28;20119;-54
2024/02/22 04:20:22;;;;;;;1.67;0.90;;;;;;;;;;5056013;28;20132;-56
2024/02/22 04:22:49;;;;;;;2.00;0.90;;;;;;;;;;5054180;28;20538;-51
2024/02/22 04:25:18;;;;;;;1.73;0.90;;;;;;;;;;5054185;28;20124;-54
2024/02/22 04:27:44;;;;;;;2.47;1.20;;;;;;;;;;5054706;28;20072;-55
2024/02/22 04:30:13;;;;;;;3.38;1.27;;;;;;;;;;5054643;28;20512;-53
2024/02/22 04:32:39;;;;;;;2.55;1.23;;;;;;;;;;5049721;28;20083;-53
2024/02/22 04:35:07;;;;;;;2.72;1.20;;;;;;;;;;5055627;28;20485;-50
2024/02/22 04:37:34;;;;;;;3.67;1.25;;;;;;;;;;5049571;28;20048;-52
2024/02/22 04:40:00;;;;;;;2.30;1.10;;;;;;;;;;5054690;28;20049;-52
2024/02/22 04:42:28;;;;;;;2.20;1.10;;;;;;;;;;5053121;28;20081;-53
2024/02/22 04:44:55;;;;;;;3.03;1.55;;;;;;;;;;5053750;28;20421;-55
2024/02/22 04:47:22;;;;;;;3.05;1.40;;;;;;;;;;5054615;28;20057;-54
2024/02/22 04:49:50;;;;;;;3.40;1.42;;;;;;;;;;5054717;28;20083;-53
2024/02/22 04:52:17;;;;;;;3.25;1.52;;;;;;;;;;5055349;28;20045;-51
2024/02/22 04:54:43;;;;;;;2.10;1.10;;;;;;;;;;5049588;28;20109;-55
2024/02/22 04:57:11;;;;;;;3.65;1.40;;;;;;;;;;5054281;28;20555;-52
2024/02/22 04:59:39;;;;;;;3.25;1.27;;;;;;;;;;5053628;28;20053;-54
2024/02/22 05:02:06;;;;;;;3.53;1.40;;;;;;;;;;5050992;28;20135;-54
2024/02/22 05:04:32;;;;;;;4.32;1.30;;;;;;;;;;5042091;28;20128;-53
2024/02/22 05:06:59;;;;;;;2.22;1.20;;;;;;;;;;5052773;28;20076;-56
2024/02/22 05:09:26;;;;;;;2.70;1.02;;;;;;;;;;5054311;28;20073;-55
2024/02/22 05:11:52;;;;;;;4.82;1.75;;;;;;;;;;5053613;28;20512;-53
2024/02/22 05:14:19;;;;;;;2.95;1.33;;;;;;;;;;5046839;28;20204;-53
2024/02/22 05:16:47;;;;;;;3.85;1.48;;;;;;;;;;5054024;28;20079;-53
2024/02/22 05:19:14;;;;;;;2.60;1.20;;;;;;;;;;5054028;28;20479;-53
2024/02/22 05:21:40;;;;;;;3.05;1.30;;;;;;;;;;5052288;28;20084;-53
2024/02/22 05:24:10;;;;;;;2.83;1.20;;;;;;;;;;5049900;28;20178;-54
2024/02/22 05:26:37;;;;;;;2.33;1.17;;;;;;;;;;5052384;28;20049;-55
2024/02/22 05:29:03;;;;;;;3.30;1.45;;;;;;;;;;5052977;28;20085;-56
2024/02/22 05:31:31;;;;;;;2.20;1.00;;;;;;;;;;5053686;28;20480;-55
2024/02/22 05:33:59;;;;;;;3.88;1.50;;;;;;;;;;5053006;28;20049;-52
2024/02/22 05:36:26;;;;;;;4.10;1.70;;;;;;;;;;5048890;28;20133;-56
2024/02/22 05:38:53;;;;;;;3.97;1.40;;;;;;;;;;5048490;28;20146;-53
2024/02/22 05:41:19;;;;;;;2.00;1.00;;;;;;;;;;5052101;28;20113;-55
2024/02/22 05:43:46;;;;;;;2.22;1.20;;;;;;;;;;5053189;28;20214;-56
2024/02/22 05:46:13;;;;;;;3.08;1.42;;;;;;;;;;5053557;28;20083;-55
2024/02/22 05:48:40;;;;;;;3.78;1.40;;;;;;;;;;5049195;28;20076;-55
2024/02/22 05:51:08;;;;;;;3.83;1.80;;;;;;;;;;5052753;28;20080;-54
2024/02/22 05:53:35;;;;;;;3.95;1.50;;;;;;;;;;5045840;28;20420;-55
2024/02/22 05:56:02;;;;;;;3.33;1.70;;;;;;;;;;5049773;28;20076;-55
2024/02/22 05:58:28;;;;;;;2.83;1.30;;;;;;;;;;5052418;28;20049;-52
2024/02/22 06:00:55;;;;;;;2.53;1.60;;;;;;;;;;5048926;28;20048;-56
2024/02/22 06:03:22;;;;;;;2.90;1.25;;;;;;;;;;5051720;28;20614;-55
2024/02/22 06:05:49;;;;;;;2.78;1.52;;;;;;;;;;5053374;28;20398;-54
2024/02/22 06:08:18;;;;;;;3.45;1.75;;;;;;;;;;5047909;28;20080;-56
2024/02/22 06:10:44;;;;;;;3.28;1.50;;;;;;;;;;5053298;28;20094;-52
2024/02/22 06:13:11;;;;;;;4.38;1.80;;;;;;;;;;5051440;28;20500;-56
2024/02/22 06:15:38;;;;;;;3.58;1.60;;;;;;;;;;5053530;28;20080;-55
2024/02/22 06:18:05;;;;;;;3.80;1.90;;;;;;;;;;5051329;28;20083;-52
2024/02/22 06:20:32;;;;;;;3.65;1.75;;;;;;;;;;5051385;28;20144;-52
2024/02/22 06:22:59;;;;;;;3.63;1.80;;;;;;;;;;5048456;28;20045;-55
2024/02/22 06:25:27;;;;;;;4.05;1.73;;;;;;;;;;5048269;28;20521;-52
2024/02/22 06:27:54;;;;;;;3.88;1.92;;;;;;;;;;5052644;28;20084;-54
2024/02/22 06:30:21;;;;;;;4.13;2.00;;;;;;;;;;5044404;28;20084;-54
2024/02/22 06:32:49;;;;;;;6.05;2.63;;;;;;;;;;5051340;28;20045;-53
2024/02/22 06:35:17;;;;;;;6.60;3.00;;;;;;;;;;5054761;28;20056;-55
2024/02/22 06:37:45;;;;;;;5.35;2.47;;;;;;;;;;5050416;28;20052;-55
2024/02/22 06:40:13;;;;;;;3.72;2.08;;;;;;;;;;5049162;28;20485;-55
2024/02/22 06:42:41;;;;;;;4.00;2.08;;;;;;;;;;5051763;28;20124;-53
2024/02/22 06:45:09;;;;;;;4.05;1.95;;;;;;;;;;5052586;28;20131;-52
2024/02/22 06:47:36;;;;;;;4.28;2.17;;;;;;;;;;5054160;28;20081;-55
2024/02/22 06:50:03;;;;;;;3.92;2.47;;;;;;;;;;5050778;28;20072;-54
2024/02/22 06:52:30;;;;;;;4.32;2.35;;;;;;;;;;5052087;28;20051;-53
2024/02/22 06:54:57;;;;;;;7.00;2.60;;;;;;;;;;5052087;28;20102;-53
2024/02/22 06:57:24;;;;;;;5.47;2.45;;;;;;;;;;5050782;28;20077;-56
2024/02/22 06:59:52;;;;;;;3.95;2.10;;;;;;;;;;5049278;28;20049;-56
2024/02/22 07:02:18;;;;;;;4.32;2.20;;;;;;;;;;5050898;28;20551;-54
2024/02/22 07:04:46;;;;;;;4.30;2.28;;;;;;;;;;5050979;28;20048;-55
2024/02/22 07:07:13;;;;;;;5.10;2.47;;;;;;;;;;5051379;28;20091;-51
2024/02/22 07:09:41;;;;;;;5.65;2.53;;;;;;;;;;5052435;28;20544;-55
2024/02/22 07:12:09;;;;;;;5.68;2.95;;;;;;;;;;5051641;28;20083;-58
2024/02/22 07:14:35;;;;;;;6.78;2.80;;;;;;;;;;5052317;28;20524;-51
2024/02/22 07:17:04;;;;;;;4.47;2.60;;;;;;;;;;5052389;28;20049;-56
2024/02/22 07:19:30;;;;;;;6.10;2.97;;;;;;;;;;5060147;28;20060;-56
2024/02/22 07:21:57;;;;;;;5.07;2.80;;;;;;;;;;5052450;28;20045;-52
2024/02/22 07:24:24;;;;;;;5.32;3.03;;;;;;;;;;5047891;28;20502;-55
2024/02/22 07:26:50;;;;;;;5.32;2.85;;;;;;;;;;5052929;28;20077;-52
2024/02/22 07:29:18;;;;;;;7.22;3.10;;;;;;;;;;5055812;28;20507;-59
2024/02/22 07:31:45;;;;;;;4.82;2.40;;;;;;;;;;5054682;28;20431;-50
2024/02/22 07:34:13;;;;;;;4.80;2.40;;;;;;;;;;5050175;28;20135;-57
2024/02/22 07:36:39;;;;;;;6.15;3.03;;;;;;;;;;5050533;28;20104;-54
2024/02/22 07:39:06;;;;;;;5.15;3.17;;;;;;;;;;5051798;28;20084;-57
2024/02/22 07:41:33;;;;;;;6.25;3.83;;;;;;;;;;5061875;28;20122;-56
2024/02/22 07:44:00;;;;;;;6.95;3.40;;;;;;;;;;5071723;28;20041;-54
2024/02/22 07:46:27;;;;;;;6.03;3.53;;;;;;;;;;5057025;28;20041;-54
2024/02/22 07:48:55;;;;;;;5.95;2.83;;;;;;;;;;5071685;28;20084;-53
2024/02/22 07:51:23;;;;;;;6.75;3.30;;;;;;;;;;5066878;28;20417;-55
2024/02/22 07:53:50;;;;;;;5.40;2.40;;;;;;;;;;5053582;28;20037;-54
2024/02/22 07:56:17;;;;;;;4.80;2.60;;;;;;;;;;5054081;28;20485;-55
2024/02/22 07:58:49;;;;;;;5.72;3.22;;;;;;;;;;5051516;28;20540;-57
2024/02/22 08:01:16;;;;;;;6.18;2.90;;;;;;;;;;5051386;28;20053;-55
2024/02/22 08:03:44;;;;;;;5.57;2.80;;;;;;;;;;5051685;28;20483;-51
2024/02/22 08:06:11;;;;;;;6.78;3.20;;;;;;;;;;5058841;28;20484;-53
2024/02/22 08:08:40;;;;;;;7.65;3.40;;;;;;;;;;5054711;28;20484;-57
2024/02/22 08:11:08;;;;;;;7.93;3.30;;;;;;;;;;5051653;28;20045;-55
2024/02/22 08:13:34;;;;;;;5.78;3.17;;;;;;;;;;5047138;28;20041;-52
2024/02/22 08:16:03;;;;;;;6.35;3.40;;;;;;;;;;5050032;28;20461;-53
2024/02/22 08:18:30;;;;;;;5.70;3.35;;;;;;;;;;5052820;28;20051;-55
2024/02/22 08:20:58;;;;;;;6.45;3.25;;;;;;;;;;5057076;28;20481;-52
2024/02/22 08:23:25;;;;;;;7.90;3.42;;;;;;;;;;5058248;28;20041;-57
2024/02/22 08:25:53;;;;;;;6.03;3.38;;;;;;;;;;5057777;28;20084;-55
2024/02/22 08:28:21;;;;;;;6.05;3.08;;;;;;;;;;5049014;28;20080;-62
2024/02/22 08:30:48;;;;;;;6.60;3.90;;;;;;;;;;5064192;28;20063;-54
2024/02/22 08:33:15;;;;;;;6.95;3.50;;;;;;;;;;5053557;28;20044;-61
2024/02/22 08:35:43;;;;;;;5.70;3.08;;;;;;;;;;5051339;28;20131;-55
2024/02/22 08:38:12;;;;;;;6.13;3.47;;;;;;;;;;5053410;28;20115;-55
2024/02/22 08:40:39;;;;;;;5.60;3.35;;;;;;;;;;5048157;28;20063;-57
2024/02/22 08:43:08;;;;;;;7.30;4.07;;;;;;;;;;5048838;28;20076;-61
2024/02/22 08:45:35;;;;;;;5.88;3.20;;;;;;;;;;5049233;28;20095;-53
2024/02/22 08:48:02;;;;;;;6.95;3.40;;;;;;;;;;5049362;28;20505;-62
2024/02/22 08:50:29;;;;;;;7.32;3.42;;;;;;;;;;5049370;28;20077;-60
2024/02/22 08:52:56;;;;;;;7.13;3.47;;;;;;;;;;5049539;28;20385;-51
2024/02/22 08:55:24;;;;;;;6.13;3.53;;;;;;;;;;5046589;28;20095;-55
2024/02/22 08:57:51;;;;;;;21.23;14.25;;;;;;;;;;5048983;28;20493;-56
2024/02/22 09:00:20;;;;;;;30.77;24.60;;;;;;;;;;5048760;28;20068;-57
2024/02/22 09:02:48;;;;;;;25.55;21.75;;;;;;;;;;5048798;28;20084;-56
2024/02/22 09:05:15;;;;;;;7.00;3.50;;;;;;;;;;5051677;28;20063;-52
2024/02/22 09:07:42;;;;;;;7.00;3.33;;;;;;;;;;5052524;28;20088;-55
2024/02/22 09:10:10;;;;;;;6.75;3.30;;;;;;;;;;5065399;28;20044;-55
2024/02/22 09:12:40;;;;;;;6.15;3.28;;;;;;;;;;5051806;28;20044;-54
2024/02/22 09:15:08;;;;;;;5.60;2.93;;;;;;;;;;5038543;28;20045;-56
2024/02/22 09:17:36;;;;;;;5.85;3.47;;;;;;;;;;5052219;28;20375;-57
2024/02/22 09:20:05;;;;;;;5.75;3.08;;;;;;;;;;5052622;28;20049;-55
2024/02/22 09:22:31;;;;;;;7.03;3.80;;;;;;;;;;5060248;28;20049;-55
2024/02/22 09:24:58;;;;;;;6.70;3.42;;;;;;;;;;5052500;28;20049;-54
2024/02/22 09:27:25;;;;;;;7.70;3.45;;;;;;;;;;5052404;28;20080;-55
2024/02/22 09:29:53;;;;;;;6.68;3.90;;;;;;;;;;5052276;28;20076;-56
2024/02/22 09:32:20;;;;;;;6.22;3.15;;;;;;;;;;5052480;28;20128;-57
2024/02/22 09:34:48;;;;;;;7.13;3.50;;;;;;;;;;5052504;28;20107;-52
2024/02/22 09:37:16;;;;;;;6.72;4.43;;;;;;;;;;5052267;28;20055;-55
2024/02/22 09:39:43;;;;;;;6.28;3.67;;;;;;;;;;5056762;28;20120;-57
2024/02/22 09:42:11;;;;;;;6.38;4.00;;;;;;;;;;5059331;28;20049;-57
2024/02/22 09:44:38;;;;;;;7.82;3.65;;;;;;;;;;5051887;28;20660;-55
2024/02/22 09:47:08;;;;;;;6.90;3.63;;;;;;;;;;5052307;28;20123;-52
2024/02/22 09:49:35;;;;;;;7.68;4.05;;;;;;;;;;5056404;28;20057;-53
2024/02/22 09:52:03;;;;;;;7.75;4.25;;;;;;;;;;5063416;28;20505;-54
2024/02/22 09:54:30;;;;;;;8.00;4.53;;;;;;;;;;5062687;28;20444;-55
2024/02/22 09:56:57;;;;;;;7.57;4.28;;;;;;;;;;5042104;28;20492;-55
2024/02/22 09:59:24;;;;;;;6.95;4.30;;;;;;;;;;5052338;28;20089;-53
2024/02/22 10:01:51;;;;;;;7.90;3.85;;;;;;;;;;5051971;28;20740;-54
2024/02/22 10:04:21;;;;;;;6.05;3.80;;;;;;;;;;5056675;28;20129;-53
2024/02/22 10:06:48;;;;;;;7.95;3.95;;;;;;;;;;5057128;28;20049;-56
2024/02/22 10:09:16;;;;;;;7.00;3.90;;;;;;;;;;5052368;28;20049;-57
2024/02/22 10:11:44;;;;;;;7.30;4.07;;;;;;;;;;5051830;28;20045;-54
2024/02/22 10:14:13;;;;;;;5.95;3.58;;;;;;;;;;5058974;28;20132;-55
2024/02/22 10:16:40;;;;;;;7.82;4.40;;;;;;;;;;5067582;28;20067;-54
2024/02/22 10:19:07;;;;;;;7.53;3.58;;;;;;;;;;5058046;28;20080;-57
2024/02/22 10:21:34;;;;;;;5.88;3.58;;;;;;;;;;5055612;28;20091;-57
2024/02/22 10:24:00;;;;;;;6.60;3.95;;;;;;;;;;5054287;28;20073;-53
2024/02/22 10:26:29;;;;;;;5.78;3.55;;;;;;;;;;5051275;28;20053;-53
2024/02/22 10:28:56;;;;;;;8.68;3.50;;;;;;;;;;5051410;28;20045;-56
2024/02/22 10:31:24;;;;;;;8.15;3.88;;;;;;;;;;5059876;28;20053;-56
2024/02/22 10:33:52;;;;;;;6.85;3.78;;;;;;;;;;5050905;28;20492;-58
2024/02/22 10:36:21;;;;;;;6.28;3.92;;;;;;;;;;5051426;28;20186;-57
2024/02/22 10:38:47;;;;;;;6.38;3.70;;;;;;;;;;5051069;28;20048;-57
2024/02/22 10:41:15;;;;;;;7.78;4.38;;;;;;;;;;5050977;28;20045;-57
2024/02/22 10:43:44;;;;;;;8.27;4.63;;;;;;;;;;5046258;28;20751;-54
2024/02/22 10:46:12;;;;;;;7.03;3.97;;;;;;;;;;5051023;28;20055;-57
2024/02/22 10:48:45;;;;;;;7.35;3.95;;;;;;;;;;5050998;28;20108;-54
2024/02/22 10:51:13;;;;;;;8.07;3.90;;;;;;;;;;5050552;28;20122;-53
2024/02/22 10:53:43;;;;;;;6.15;3.70;;;;;;;;;;5054888;28;20045;-54
2024/02/22 10:56:15;;;;;;;7.63;4.10;;;;;;;;;;5063124;28;20703;-58
2024/02/22 10:58:47;;;;;;;7.85;4.47;;;;;;;;;;5057453;28;20051;-57
2024/02/22 11:01:14;;;;;;;9.05;4.82;;;;;;;;;;5052765;28;20052;-57
2024/02/22 11:03:41;;;;;;;5.22;3.17;;;;;;;;;;5042768;28;20041;-52
2024/02/22 11:06:08;;;;;;;8.57;3.85;;;;;;;;;;5050545;28;20084;-55
2024/02/22 11:08:36;;;;;;;9.32;3.53;;;;;;;;;;5052166;28;20048;-55
2024/02/22 11:11:04;;;;;;;6.28;3.17;;;;;;;;;;5056173;28;20044;-57
2024/02/22 11:13:31;;;;;;;6.50;3.35;;;;;;;;;;5070503;28;20076;-55
2024/02/22 11:15:59;;;;;;;6.18;3.47;;;;;;;;;;5054706;28;20052;-53
2024/02/22 11:18:26;;;;;;;5.78;3.28;;;;;;;;;;5049833;28;20060;-57
2024/02/22 11:20:53;;;;;;;6.85;3.38;;;;;;;;;;5054276;28;20045;-53
2024/02/22 11:23:20;;;;;;;4.90;2.88;;;;;;;;;;5052009;28;20053;-54
2024/02/22 11:25:47;;;;;;;5.10;3.00;;;;;;;;;;5049944;28;20091;-56
2024/02/22 11:28:14;;;;;;;6.35;3.25;;;;;;;;;;5064875;28;20076;-54
2024/02/22 11:30:44;;;;;;;5.32;3.30;;;;;;;;;;5068237;28;20045;-62
2024/02/22 11:33:12;;;;;;;5.57;2.95;;;;;;;;;;5056733;28;20645;-55
2024/02/22 11:35:41;;;;;;;6.22;3.35;;;;;;;;;;5050164;28;20063;-55
2024/02/22 11:38:08;;;;;;;6.85;3.63;;;;;;;;;;5049953;28;22019;-58
2024/02/22 11:40:35;;;;;;;6.43;4.72;;;;;;;;;;5050098;28;20084;-58
2024/02/22 11:43:03;;;;;;;7.63;4.28;;;;;;;;;;5050090;28;20095;-58
2024/02/22 11:45:30;;;;;;;5.82;3.63;;;;;;;;;;5050065;28;20055;-56
2024/02/22 11:47:57;;;;;;;5.93;3.17;;;;;;;;;;5050067;28;20044;-56
2024/02/22 11:50:27;;;;;;;5.70;3.20;;;;;;;;;;5050695;28;20144;-58
2024/02/22 11:52:55;;;;;;;4.65;2.60;;;;;;;;;;5050346;28;20481;-58
2024/02/22 11:55:21;;;;;;;5.22;2.85;;;;;;;;;;5050145;28;20091;-57
2024/02/22 11:57:48;;;;;;;6.05;2.92;;;;;;;;;;5049750;28;20077;-57
2024/02/22 12:00:15;;;;;;;6.30;3.33;;;;;;;;;;5049744;28;20472;-61
2024/02/22 12:02:43;;;;;;;5.65;3.20;;;;;;;;;;5066262;28;20048;-56
2024/02/22 12:05:11;;;;;;;5.60;2.85;;;;;;;;;;5070135;28;20526;-56
2024/02/22 12:07:40;;;;;;;5.47;2.80;;;;;;;;;;5069723;28;20053;-57
2024/02/22 12:10:07;;;;;;;4.68;2.80;;;;;;;;;;5066808;28;20460;-62
2024/02/22 12:12:35;;;;;;;6.00;3.00;;;;;;;;;;5047015;28;20107;-62
2024/02/22 12:15:02;;;;;;;4.88;3.17;;;;;;;;;;5056865;28;20437;-63
2024/02/22 12:17:31;;;;;;;6.45;3.33;;;;;;;;;;5052294;28;20136;-53
2024/02/22 12:19:59;;;;;;;7.00;3.50;;;;;;;;;;5049789;28;20049;-56
2024/02/22 12:22:29;;;;;;;5.90;3.13;;;;;;;;;;5049535;28;20056;-55
2024/02/22 12:24:58;;;;;;;5.40;3.00;;;;;;;;;;5050012;28;20095;-55
2024/02/22 12:27:26;;;;;;;5.28;3.38;;;;;;;;;;5049936;28;20055;-56
2024/02/22 12:29:53;;;;;;;5.15;3.17;;;;;;;;;;5050083;28;20060;-56
2024/02/22 12:32:21;;;;;;;6.68;3.75;;;;;;;;;;5050192;28;20076;-56
2024/02/22 12:34:48;;;;;;;5.97;3.28;;;;;;;;;;5050042;28;20140;-54
2024/02/22 12:37:15;;;;;;;5.20;3.25;;;;;;;;;;5050459;28;20527;-55
2024/02/22 12:39:42;;;;;;;7.63;3.28;;;;;;;;;;5053369;28;20076;-55
2024/02/22 12:42:10;;;;;;;5.68;3.95;;;;;;;;;;5053877;28;20515;-54
2024/02/22 12:44:37;;;;;;;6.13;3.13;;;;;;;;;;5053592;28;20048;-57
2024/02/22 12:47:05;;;;;;;6.85;3.45;;;;;;;;;;5053429;28;20080;-54
2024/02/22 12:49:33;;;;;;;4.75;2.95;;;;;;;;;;5053474;28;20041;-52
2024/02/22 12:51:59;;;;;;;5.97;2.97;;;;;;;;;;5053570;28;20051;-54
2024/02/22 12:54:26;;;;;;;6.15;3.42;;;;;;;;;;5053549;28;20687;-57
2024/02/22 12:56:54;;;;;;;4.05;2.42;;;;;;;;;;5053502;28;20084;-56
2024/02/22 12:59:22;;;;;;;6.25;2.80;;;;;;;;;;5053311;28;20049;-57
2024/02/22 13:01:49;;;;;;;5.85;2.90;;;;;;;;;;5053152;28;20127;-54
2024/02/22 13:04:15;;;;;;;6.10;2.88;;;;;;;;;;5053140;28;20077;-58
2024/02/22 13:06:42;;;;;;;4.45;2.50;;;;;;;;;;5053282;28;20183;-53
2024/02/22 13:09:11;;;;;;;6.00;2.55;;;;;;;;;;5053092;28;20053;-57
2024/02/22 13:11:38;;;;;;;4.60;2.30;;;;;;;;;;5052967;28;20140;-55
2024/02/22 13:14:04;;;;;;;4.20;2.40;;;;;;;;;;5052699;28;20049;-54
2024/02/22 13:16:34;;;;;;;6.68;3.30;;;;;;;;;;5052755;28;20084;-55
2024/02/22 13:19:01;;;;;;;4.82;2.70;;;;;;;;;;5052548;28;20128;-57
2024/02/22 13:21:27;;;;;;;5.07;2.80;;;;;;;;;;5052773;28;20052;-55
2024/02/22 13:23:54;;;;;;;5.88;2.63;;;;;;;;;;5052723;28;20052;-57
2024/02/22 13:26:21;;;;;;;5.75;2.70;;;;;;;;;;5052469;28;20057;-52
2024/02/22 13:28:49;;;;;;;4.93;2.58;;;;;;;;;;5052829;28;20080;-56
2024/02/22 13:31:16;;;;;;;6.63;3.03;;;;;;;;;;5052563;28;20044;-56
2024/02/22 13:33:47;;;;;;;4.82;2.63;;;;;;;;;;5052723;28;20660;-55
2024/02/22 13:36:14;;;;;;;5.85;2.67;;;;;;;;;;5052681;28;20063;-56
2024/02/22 13:38:41;;;;;;;6.93;3.05;;;;;;;;;;5052176;28;20094;-53
2024/02/22 13:41:08;;;;;;;6.70;3.67;;;;;;;;;;5052565;28;20059;-54
2024/02/22 13:43:35;;;;;;;6.40;3.38;;;;;;;;;;5052517;28;20504;-52
2024/02/22 13:46:02;;;;;;;7.03;3.63;;;;;;;;;;5052213;28;20041;-56
2024/02/22 13:48:31;;;;;;;7.82;3.80;;;;;;;;;;5040913;28;20138;-49
2024/02/22 13:50:59;;;;;;;6.30;3.15;;;;;;;;;;5051552;28;20049;-52
2024/02/22 13:53:26;;;;;;;8.45;4.72;;;;;;;;;;5052087;28;20048;-52
2024/02/22 13:55:52;;;;;;;6.60;3.67;;;;;;;;;;5052360;28;20083;-54
2024/02/22 13:58:19;;;;;;;6.47;3.15;;;;;;;;;;5052356;28;20072;-56
2024/02/22 14:00:46;;;;;;;6.50;3.25;;;;;;;;;;5051856;28;20080;-52
2024/02/22 14:03:13;;;;;;;3.97;2.22;;;;;;;;;;5051710;28;20143;-55
2024/02/22 14:05:40;;;;;;;4.78;2.53;;;;;;;;;;5052277;28;20076;-58
2024/02/22 14:08:10;;;;;;;6.05;2.70;;;;;;;;;;5052184;28;20041;-56
2024/02/22 14:10:39;;;;;;;6.60;3.30;;;;;;;;;;5052012;28;20548;-56
2024/02/22 14:13:07;;;;;;;3.83;2.40;;;;;;;;;;5052006;28;20049;-56
2024/02/22 14:15:34;;;;;;;4.45;2.25;;;;;;;;;;5051545;28;20083;-56
2024/02/22 14:18:02;;;;;;;6.68;2.65;;;;;;;;;;5051762;28;20515;-53
2024/02/22 14:20:29;;;;;;;4.60;2.05;;;;;;;;;;5051664;28;20051;-52
2024/02/22 14:22:56;;;;;;;5.25;2.45;;;;;;;;;;5051367;28;20083;-56
2024/02/22 14:25:24;;;;;;;5.18;2.40;;;;;;;;;;5069602;28;20105;-51
2024/02/22 14:27:50;;;;;;;5.60;2.80;;;;;;;;;;5071795;28;20508;-52
2024/02/22 14:30:17;;;;;;;6.13;2.65;;;;;;;;;;5071730;28;20213;-55
2024/02/22 14:32:44;;;;;;;6.15;3.20;;;;;;;;;;5071317;28;20084;-54
2024/02/22 14:35:13;;;;;;;6.22;3.30;;;;;;;;;;5051375;28;20085;-55
2024/02/22 14:37:39;;;;;;;6.68;3.35;;;;;;;;;;5051516;28;20049;-51
2024/02/22 14:40:08;;;;;;;8.18;3.33;;;;;;;;;;5051118;28;20080;-51
2024/02/22 14:42:36;;;;;;;5.38;3.13;;;;;;;;;;5051264;28;20480;-55
2024/02/22 14:45:03;;;;;;;5.78;3.05;;;;;;;;;;5051245;28;20076;-53